Data for 04/05/2006

Time Sea-Level Adjusted Pressure Absolute Pressure Temperature Relative Humidity Dew Point   
(mb) (inHg) (mb) (inHg) (C) (F) (%) (C) (F)
00:05 1010 29.83 839 24.78 8.9 48 65 2.7 36.8
00:10 1010 29.83 839 24.78 9.2 48.5 66 3.1 37.6
00:15 1010 29.83 839 24.78 9.2 48.5 77 5.4 41.6
00:20 1010 29.83 839 24.78 8.5 47.2 82 5.5 42
00:25 1009 29.8 839 24.78 8.1 46.6 86 5.9 42.7
00:30 1009 29.8 838 24.75 7.6 45.7 88 5.8 42.4
00:35 1009 29.8 838 24.75 7.3 45.1 88 5.5 41.9
00:40 1009 29.8 838 24.75 7.3 45.2 87 5.3 41.5
00:45 1009 29.8 838 24.75 7.2 45 89 5.4 41.8
00:50 1009 29.8 838 24.75 7.1 44.8 89 5.4 41.7
00:55 1009 29.8 838 24.75 6.9 44.3 91 5.5 41.9
01:00 1009 29.8 838 24.75 6.7 44 91 5.3 41.5
01:05 1009 29.8 838 24.75 6.8 44.3 88 5 41
01:10 1009 29.8 838 24.75 7 44.6 84 4.6 40.2
01:15 1009 29.8 838 24.75 7.3 45.2 83 4.6 40.2
01:20 1009 29.8 838 24.75 7.1 44.7 84 4.6 40.3
01:25 1008 29.77 838 24.75 6.6 43.9 86 4.4 40
01:30 1008 29.77 838 24.75 6.5 43.8 84 4.1 39.4
01:35 1008 29.77 838 24.75 6.8 44.3 83 4.1 39.3
01:40 1008 29.77 837 24.72 7.1 44.8 81 4 39.2
01:45 1008 29.77 837 24.72 7.1 44.8 81 4 39.2
01:50 1008 29.77 837 24.72 7.6 45.7 75 3.5 38.3
01:55 1008 29.77 837 24.72 8.1 46.5 75 3.9 39
02:00 1008 29.77 837 24.72 8.1 46.6 74 3.7 38.7
02:05 1008 29.77 837 24.72 8.4 47 71 3.5 38.3
02:10 1008 29.77 837 24.72 8.7 47.6 69 3.2 37.8
02:15 1008 29.77 837 24.72 8.8 47.8 69 3.4 38.2
02:20 1008 29.77 837 24.72 8.7 47.7 68 3.3 37.9
02:25 1008 29.77 837 24.72 8.7 47.7 68 3.2 37.7
02:30 1008 29.77 837 24.72 8.9 48 67 3.1 37.6
02:35 1008 29.77 837 24.72 9 48.2 68 3.4 38.1
02:40 1008 29.77 837 24.72 8.8 47.9 68 3.3 37.9
02:45 1008 29.77 837 24.72 8.4 47 70 3.3 37.9
02:50 1008 29.77 837 24.72 8 46.5 72 3.2 37.8
02:55 1008 29.77 837 24.72 7.7 45.8 72 3 37.4
03:00 1008 29.77 837 24.72 7.6 45.7 71 2.7 36.8
03:05 1008 29.77 837 24.72 7.7 45.9 70 2.6 36.7
03:10 1008 29.77 837 24.72 7.8 46.1 69 2.6 36.6
03:15 1008 29.77 837 24.72 7.9 46.2 69 2.6 36.7
03:20 1007 29.74 837 24.72 7.8 46 70 2.6 36.7
03:25 1007 29.74 837 24.72 7.7 45.8 71 2.7 36.9
03:30 1007 29.74 837 24.72 8.2 46.8 68 2.7 36.9
03:35 1007 29.74 837 24.72 8 46.4 70 2.9 37.2
03:40 1007 29.74 836 24.69 7.7 45.8 71 2.8 37
03:45 1007 29.74 836 24.69 7.9 46.2 68 2.4 36.3
03:50 1007 29.74 836 24.69 8.5 47.3 67 2.7 36.9
03:55 1007 29.74 836 24.69 8.4 47.2 67 2.6 36.7
04:00 1007 29.74 836 24.69 9 48.1 63 2.4 36.4
04:05 1007 29.74 836 24.69 9.4 48.8 63 2.7 36.9
04:10 1007 29.74 836 24.69 9.4 48.9 64 3 37.4
04:15 1007 29.74 836 24.69 9.2 48.5 64 2.8 37.1
04:20 1007 29.74 836 24.69 9.2 48.5 64 2.8 37
04:25 1007 29.74 836 24.69 9.3 48.7 64 2.8 37
04:30 1007 29.74 836 24.69 9.4 48.9 65 3.1 37.6
04:35 1007 29.74 836 24.69 9.4 48.9 63 2.7 36.8
04:40 1006 29.71 836 24.69 9.6 49.3 62 2.8 37
04:45 1006 29.71 836 24.69 9.6 49.3 63 2.9 37.2
04:50 1007 29.74 836 24.69 9.6 49.2 63 2.9 37.2
04:55 1007 29.74 836 24.69 9.4 48.9 62 2.6 36.7
05:00 1007 29.74 836 24.69 9.4 48.9 63 2.8 37
05:05 1007 29.74 836 24.69 9.2 48.5 64 2.6 36.8
05:10 1007 29.74 836 24.69 9.2 48.6 63 2.5 36.6
05:15 1006 29.71 836 24.69 9.6 49.3 60 2.3 36.1
05:20 1006 29.71 835 24.66 10 49.9 59 2.3 36.1
05:25 1006 29.71 835 24.66 10.4 50.6 59 2.8 37
05:30 1006 29.71 835 24.66 10 49.9 60 2.6 36.7
05:35 1006 29.71 835 24.66 10.3 50.5 58 2.4 36.4
05:40 1006 29.71 835 24.66 10.4 50.7 59 2.8 37.1
05:45 1006 29.71 835 24.66 10.1 50.2 60 2.8 37.1
05:50 1006 29.71 835 24.66 10 50 61 2.9 37.3
05:55 1006 29.71 835 24.66 9.7 49.5 63 3 37.4
06:00 1005 29.68 835 24.66 9.4 48.9 63 2.8 37.1
06:05 1006 29.71 835 24.66 9.4 48.9 64 2.9 37.1
06:10 1006 29.71 835 24.66 9.4 48.9 63 2.7 36.9
06:15 1006 29.71 835 24.66 9.4 49 64 2.9 37.3
06:20 1006 29.71 835 24.66 9.3 48.7 65 3 37.3
06:25 1006 29.71 835 24.66 9.2 48.6 65 3.1 37.5
06:30 1006 29.71 835 24.66 9 48.2 66 3.1 37.5
06:35 1006 29.71 835 24.66 8.9 48 67 3 37.5
06:40 1006 29.71 835 24.66 8.9 48 66 2.9 37.2
06:45 1006 29.71 835 24.66 9 48.3 66 3 37.4
06:50 1006 29.71 835 24.66 9 48.3 66 3 37.4
06:55 1006 29.71 835 24.66 9.1 48.4 65 3 37.4
07:00 1006 29.71 835 24.66 9.1 48.4 65 2.9 37.3
07:05 1006 29.71 835 24.66 8.9 48.1 71 4 39.1
07:10 1006 29.71 836 24.69 8.2 46.8 69 2.9 37.3
07:15 1006 29.71 836 24.69 8.6 47.5 71 3.7 38.7
07:20 1007 29.74 836 24.69 8 46.4 77 4.3 39.8
07:25 1007 29.74 836 24.69 7.3 45.1 80 4.1 39.4
07:30 1007 29.74 836 24.69 7.1 44.7 83 4.3 39.8
07:35 1007 29.74 836 24.69 7 44.5 86 4.8 40.6
07:40 1007 29.74 836 24.69 6.3 43.3 90 4.8 40.6
07:45 1007 29.74 836 24.69 5.1 41.2 94 4.2 39.6
07:50 1007 29.74 836 24.69 4.7 40.4 95 4 39.2
07:55 1007 29.74 836 24.69 4.7 40.4 96 4.1 39.3
08:00 1007 29.74 836 24.69 4.8 40.7 96 4.3 39.7
08:05 1007 29.74 836 24.69 5 40.9 96 4.4 39.8
08:10 1006 29.71 835 24.66 5.1 41.1 96 4.4 40
08:15 1006 29.71 835 24.66 5.2 41.3 95 4.4 40
08:20 1006 29.71 835 24.66 5.3 41.5 95 4.5 40.2
08:25 1006 29.71 835 24.66 5.2 41.4 95 4.5 40.1
08:30 1006 29.71 835 24.66 5.3 41.6 92 4.2 39.5
08:35 1006 29.71 835 24.66 5.5 41.9 92 4.3 39.8
08:40 1006 29.71 835 24.66 5.7 42.3 89 4.1 39.3
08:45 1006 29.71 836 24.69 5.9 42.6 89 4.3 39.7
08:50 1006 29.71 836 24.69 6 42.8 89 4.3 39.7
08:55 1006 29.71 835 24.66 6.2 43.2 87 4.3 39.7
09:00 1006 29.71 835 24.66 6.3 43.4 86 4.2 39.6
09:05 1006 29.71 835 24.66 6.3 43.4 86 4.2 39.6
09:10 1005 29.68 835 24.66 6.5 43.7 87 4.4 40
09:15 1005 29.68 834 24.63 6.6 44 85 4.3 39.8
09:20 1005 29.68 834 24.63 6.9 44.5 83 4.3 39.8
09:25 1005 29.68 834 24.63 7.2 44.9 82 4.3 39.8
09:30 1005 29.68 834 24.63 7.3 45.2 83 4.6 40.2
09:35 1005 29.68 834 24.63 7.6 45.7 82 4.7 40.5
09:40 1005 29.68 834 24.63 8.2 46.7 81 5.2 41.3
09:45 1005 29.68 834 24.63 8.3 46.9 80 5.1 41.2
09:50 1005 29.68 834 24.63 8.2 46.7 80 5 41.1
09:55 1005 29.68 834 24.63 8.2 46.8 81 5.1 41.1
10:00 1004 29.65 834 24.63 8.6 47.6 79 5.1 41.2
10:05 1004 29.65 833 24.6 9 48.3 78 5.4 41.6
10:10 1004 29.65 833 24.6 9.3 48.8 75 5.1 41.2
10:15 1004 29.65 833 24.6 9.6 49.3 74 5.3 41.5
10:20 1004 29.65 833 24.6 9.7 49.5 72 5 41
10:25 1004 29.65 833 24.6 9.7 49.4 71 4.7 40.4
10:30 1004 29.65 833 24.6 9.6 49.3 71 4.6 40.2
10:35 1004 29.65 833 24.6 9.5 49.1 71 4.6 40.3
10:40 1004 29.65 833 24.6 9.6 49.4 72 4.9 40.8
10:45 1004 29.65 833 24.6 10.1 50.2 70 5 41
10:50 1003 29.62 833 24.6 10.4 50.8 69 5 41
10:55 1003 29.62 833 24.6 10.4 50.8 69 5 41
11:00 1003 29.62 833 24.6 10.3 50.5 69 4.9 40.8
11:05 1003 29.62 833 24.6 10.4 50.8 68 4.9 40.8
11:10 1003 29.62 832 24.57 10.7 51.3 67 4.8 40.6
11:15 1003 29.62 832 24.57 10.9 51.7 66 4.8 40.7
11:20 1003 29.62 832 24.57 11.1 51.9 65 4.7 40.4
11:25 1003 29.62 832 24.57 11.3 52.3 65 4.9 40.8
11:30 1003 29.62 832 24.57 11.3 52.4 64 4.8 40.6
11:35 1003 29.62 832 24.57 11.5 52.7 65 5.1 41.2
11:40 1003 29.62 832 24.57 12.2 53.9 64 5.6 42.1
11:45 1003 29.62 832 24.57 12.2 53.9 65 5.8 42.4
11:50 1003 29.62 832 24.57 12.1 53.7 65 5.7 42.2
11:55 1003 29.62 832 24.57 12.3 54.1 63 5.4 41.7
12:00 1003 29.62 832 24.57 12.3 54.1 61 5 41
12:05 1003 29.62 832 24.57 12.6 54.6 61 5.3 41.5
12:10 1003 29.62 832 24.57 12.1 53.9 63 5.4 41.7
12:15 1003 29.62 832 24.57 12 53.5 61 4.8 40.6
12:20 1003 29.62 832 24.57 12 53.5 61 4.6 40.3
12:25 1003 29.62 832 24.57 12 53.6 60 4.6 40.3
12:30 1003 29.62 832 24.57 12 53.6 58 4.1 39.3
12:35 1003 29.62 832 24.57 12 53.6 58 4.1 39.4
12:40 1003 29.62 832 24.57 12.2 53.9 58 4.1 39.4
12:45 1003 29.62 832 24.57 12.4 54.3 56 3.9 39
12:50 1003 29.62 832 24.57 12.6 54.6 55 3.8 38.8
12:55 1003 29.62 832 24.57 12.7 54.8 55 3.9 39
13:00 1003 29.62 832 24.57 12.7 54.9 55 4 39.2
13:05 1003 29.62 832 24.57 12.2 54 69 6.8 44.2
13:10 1003 29.62 832 24.57 10.5 50.9 76 6.5 43.7
13:15 1003 29.62 832 24.57 9.7 49.5 80 6.4 43.4
13:20 1003 29.62 832 24.57 8.4 47.1 87 6.4 43.5
13:25 1003 29.62 832 24.57 7.6 45.7 90 6.1 42.9
13:30 1003 29.62 832 24.57 7.5 45.5 89 5.8 42.4
13:35 1003 29.62 832 24.57 7.7 45.8 87 5.6 42.1
13:40 1003 29.62 832 24.57 7.9 46.2 86 5.7 42.3
13:45 1003 29.62 832 24.57 7.7 45.8 87 5.7 42.2
13:50 1002 29.59 831 24.54 8 46.3 89 6.2 43.2
13:55 1001 29.56 831 24.54 8.1 46.5 86 5.8 42.4
14:00 1002 29.59 831 24.54 8.3 46.9 84 5.8 42.4
14:05 1002 29.59 831 24.54 8.7 47.6 84 6.2 43.2
14:10 1002 29.59 831 24.54 9.2 48.5 84 6.6 43.9
14:15 1002 29.59 831 24.54 10 50 79 6.6 43.8
14:20 1002 29.59 831 24.54 10.5 50.8 79 7 44.6
14:25 1002 29.59 831 24.54 10.8 51.5 79 7.3 45.1
14:30 1001 29.56 831 24.54 11.3 52.4 74 6.9 44.5
14:35 1001 29.56 830 24.51 12 53.6 72 7.2 44.9
14:40 1001 29.56 830 24.51 12.9 55.2 71 7.9 46.2
14:45 1001 29.56 830 24.51 13.3 55.9 67 7.4 45.4
14:50 1001 29.56 830 24.51 12.4 54.3 77 8.4 47.2
14:55 1001 29.56 830 24.51 11.1 52 77 7.3 45.2
15:00 1001 29.56 830 24.51 11.1 51.9 75 6.9 44.4
15:05 1001 29.56 830 24.51 12 53.5 64 5.3 41.6
15:10 1000 29.53 830 24.51 13.5 56.2 53 4.1 39.4
15:15 1000 29.53 830 24.51 14.1 57.4 52 4.4 40
15:20 1000 29.53 829 24.48 14.3 57.7 52 4.5 40.2
15:25 1000 29.53 829 24.48 14.1 57.3 53 4.7 40.4
15:30 1000 29.53 829 24.48 13.9 57 55 5 40.9
15:35 1000 29.53 829 24.48 13.8 56.8 54 4.8 40.6
15:40 1000 29.53 829 24.48 13.7 56.6 54 4.7 40.5
15:45 1000 29.53 829 24.48 13.8 56.8 53 4.4 39.9
15:50 1000 29.53 829 24.48 13.9 57.1 54 4.8 40.6
15:55 1000 29.53 829 24.48 14.5 58 48 3.8 38.8
16:00 1000 29.53 829 24.48 14.7 58.5 47 3.8 38.8
16:05 1000 29.53 829 24.48 14.6 58.3 48 3.9 39
16:10 1000 29.53 829 24.48 15 58.9 47 3.8 38.9
16:15 1000 29.53 829 24.48 14.8 58.6 47 3.5 38.4
16:20 1000 29.53 829 24.48 14.8 58.6 46 3.5 38.3
16:25 1000 29.53 829 24.48 14.9 58.8 46 3.5 38.3
16:30 1000 29.53 829 24.48 14.9 58.8 46 3.4 38.2
16:35 1000 29.53 829 24.48 15.1 59.2 45 3.4 38
16:40 1000 29.53 829 24.48 15 59 47 3.7 38.7
16:45 1000 29.53 829 24.48 14.4 57.8 49 3.9 39.1
16:50 1000 29.53 829 24.48 13.9 57 51 4.1 39.4
16:55 1000 29.53 829 24.48 13.7 56.7 52 4.1 39.4
17:00 1000 29.53 829 24.48 13.6 56.4 53 4.2 39.6
17:05 1000 29.53 829 24.48 13.6 56.4 53 4.2 39.6
17:10 1000 29.53 829 24.48 13.6 56.5 53 4.3 39.7
17:15 1000 29.53 829 24.48 13.4 56.2 64 6.9 44.3
17:20 1000 29.53 829 24.48 12.7 54.8 67 6.9 44.4
17:25 1000 29.53 829 24.48 12 53.6 69 6.5 43.7
17:30 1000 29.53 829 24.48 11.8 53.2 71 6.6 43.9
17:35 1000 29.53 829 24.48 11.5 52.6 72 6.7 44.1
17:40 1000 29.53 829 24.48 11 51.7 75 6.7 44.1
17:45 1000 29.53 830 24.51 10.7 51.3 77 6.9 44.4
17:50 1000 29.53 829 24.48 10.6 51 78 6.9 44.4
17:55 1000 29.53 830 24.51 10.5 50.8 79 7 44.6
18:00 1000 29.53 830 24.51 10.1 50.1 82 7.2 45
18:05 1000 29.53 829 24.48 9.6 49.3 87 7.6 45.6
18:10 1000 29.53 829 24.48 9.2 48.6 90 7.7 45.9
18:15 1000 29.53 829 24.48 8.9 48.1 90 7.4 45.4
18:20 1000 29.53 829 24.48 8.6 47.4 93 7.4 45.4
18:25 1000 29.53 829 24.48 8.4 47.1 89 6.8 44.2
18:30 1000 29.53 829 24.48 8.5 47.2 92 7.3 45.1
18:35 1000 29.53 829 24.48 8.6 47.5 93 7.6 45.7
18:40 1000 29.53 829 24.48 8.8 47.8 94 7.8 46
18:45 1000 29.53 829 24.48 8.7 47.7 94 7.7 45.9
18:50 1000 29.53 829 24.48 8.6 47.5 94 7.6 45.7
18:55 1000 29.53 830 24.51 8.4 47.1 95 7.7 45.8
19:00 1001 29.56 830 24.51 8.2 46.7 96 7.6 45.7
19:05 1001 29.56 830 24.51 8.2 46.7 97 7.7 45.8
19:10 1000 29.53 830 24.51 8.1 46.5 97 7.7 45.8
19:15 1000 29.53 830 24.51 8 46.4 98 7.6 45.8
19:20 1000 29.53 829 24.48 8 46.4 98 7.8 46
19:25 1000 29.53 829 24.48 8.3 47 98 8 46.5
19:30 1000 29.53 829 24.48 8.4 47.1 97 8 46.4
19:35 1000 29.53 829 24.48 8.4 47.2 96 7.9 46.2
19:40 1000 29.53 829 24.48 8.4 47 96 7.8 46.1
19:45 1000 29.53 829 24.48 8.5 47.2 96 7.9 46.3
19:50 1000 29.53 829 24.48 8.5 47.4 96 7.9 46.3
19:55 1000 29.53 829 24.48 8.5 47.3 96 7.9 46.2
20:00 1000 29.53 829 24.48 8.4 47.1 96 7.8 46
20:05 1000 29.53 829 24.48 8.4 47 96 7.7 45.9
20:10 1000 29.53 829 24.48 8.3 46.9 96 7.6 45.7
20:15 1000 29.53 829 24.48 8.2 46.8 96 7.6 45.7
20:20 1000 29.53 829 24.48 8.2 46.8 96 7.6 45.7
20:25 1000 29.53 829 24.48 8.2 46.7 96 7.6 45.6
20:30 1000 29.53 829 24.48 8.2 46.7 96 7.6 45.7
20:35 1000 29.53 829 24.48 8.2 46.8 96 7.6 45.8
20:40 1000 29.53 829 24.48 8.2 46.7 97 7.7 45.8
20:45 1000 29.53 829 24.48 8.1 46.6 96 7.6 45.6
20:50 1000 29.53 829 24.48 8.1 46.6 96 7.6 45.7
20:55 1000 29.53 829 24.48 8 46.5 97 7.5 45.5
21:00 1000 29.53 829 24.48 8 46.3 96 7.4 45.3
21:05 1000 29.53 829 24.48 7.7 45.9 96 7.1 44.8
21:10 1000 29.53 829 24.48 7.6 45.6 96 7 44.6
21:15 1000 29.53 829 24.48 7.4 45.3 96 6.9 44.3
21:20 1000 29.53 829 24.48 7.4 45.2 97 6.8 44.3
21:25 1000 29.53 829 24.48 7.3 45.1 97 6.8 44.2
21:30 1000 29.53 829 24.48 7.1 44.7 97 6.6 43.9
21:35 1000 29.53 829 24.48 6.9 44.5 97 6.5 43.7
21:40 1000 29.53 829 24.48 7 44.5 97 6.6 43.8
21:45 1000 29.53 829 24.48 6.9 44.4 97 6.5 43.7
21:50 1000 29.53 830 24.51 6.8 44.3 98 6.5 43.7
21:55 1000 29.53 830 24.51 6.7 44.1 97 6.3 43.3
22:00 1001 29.56 830 24.51 6.4 43.5 97 6 42.8
22:05 1001 29.56 830 24.51 5.9 42.7 94 5.1 41.2
22:10 1001 29.56 830 24.51 5.6 42 96 4.9 40.8
22:15 1001 29.56 830 24.51 5.5 41.9 95 4.7 40.4
22:20 1001 29.56 830 24.51 5.3 41.5 92 4.1 39.3
22:25 1001 29.56 830 24.51 5.2 41.4 92 4 39.2
22:30 1001 29.56 830 24.51 5.3 41.5 92 4.1 39.4
22:35 1001 29.56 830 24.51 5.4 41.7 92 4.1 39.4
22:40 1001 29.56 830 24.51 5.5 41.8 92 4.3 39.7
22:45 1001 29.56 830 24.51 5.6 42.1 92 4.4 40
22:50 1001 29.56 830 24.51 5.6 42.2 93 4.6 40.2
22:55 1001 29.56 830 24.51 5.6 42.1 93 4.6 40.3
23:00 1001 29.56 830 24.51 5.6 42.1 94 4.7 40.4
23:05 1001 29.56 830 24.51 5.6 42.1 94 4.7 40.4
23:10 1001 29.56 830 24.51 5.5 41.9 95 4.7 40.4
23:15 1001 29.56 830 24.51 5.3 41.6 95 4.6 40.2
23:20 1001 29.56 830 24.51 5.1 41.2 96 4.5 40.1
23:25 1001 29.56 830 24.51 5 41 96 4.5 40
23:30 1001 29.56 830 24.51 5 41 96 4.4 40
23:35 1001 29.56 830 24.51 5 41.1 97 4.5 40.2
23:40 1001 29.56 830 24.51 5 41 95 4.3 39.7
23:45 1001 29.56 830 24.51 4.7 40.5 95 4 39.2
23:50 1001 29.56 831 24.54 4.6 40.3 94 3.8 38.8
23:55 1002 29.59 831 24.54 4.5 40.1 94 3.7 38.7
24:00 1002 29.59 831 24.54 4.4 39.9 94 3.6 38.4